createdAt,value
2019-03-23T00:02:23.468Z,28.60
2019-03-23T00:07:31.623Z,26.80
2019-03-23T00:12:38.569Z,20.70
2019-03-23T00:17:45.651Z,25.47
2019-03-23T00:22:52.007Z,20.93
2019-03-23T00:27:58.889Z,23.40
2019-03-23T00:33:05.951Z,24.07
2019-03-23T00:38:12.460Z,26.23
2019-03-23T00:43:20.986Z,22.00
2019-03-23T00:48:27.682Z,24.90
2019-03-23T00:53:34.982Z,27.23
2019-03-23T00:58:44.662Z,21.37
2019-03-23T01:03:53.806Z,21.73
2019-03-23T01:09:00.229Z,27.87
2019-03-23T01:14:09.920Z,24.03
2019-03-23T01:19:17.775Z,28.87
2019-03-23T01:24:26.004Z,23.57
2019-03-23T01:29:33.776Z,23.43
2019-03-23T01:34:42.090Z,22.73
2019-03-23T01:39:50.605Z,29.10
2019-03-23T01:44:57.668Z,27.50
2019-03-23T01:50:04.193Z,27.87
2019-03-23T01:55:11.214Z,27.70
2019-03-23T02:00:19.101Z,22.30
2019-03-23T02:05:26.545Z,26.00
2019-03-23T02:10:34.343Z,22.23
2019-03-23T02:15:42.702Z,25.57
2019-03-23T02:20:49.162Z,21.73
2019-03-23T02:25:56.588Z,25.70
2019-03-23T02:31:07.194Z,24.33
2019-03-23T02:36:15.260Z,30.47
2019-03-23T02:41:23.048Z,21.87
2019-03-23T02:46:31.094Z,26.83
2019-03-23T02:51:39.770Z,29.27
2019-03-23T02:56:47.565Z,21.67
2019-03-23T03:01:56.429Z,28.70
2019-03-23T03:07:04.220Z,24.70
2019-03-23T03:12:11.803Z,25.27
2019-03-23T03:17:19.247Z,33.57
2019-03-23T03:22:26.706Z,31.43
2019-03-23T03:27:34.301Z,29.43
2019-03-23T03:32:40.842Z,29.37
2019-03-23T03:37:56.379Z,25.07
2019-03-23T03:42:58.090Z,29.47
2019-03-23T03:48:06.546Z,25.27
2019-03-23T03:53:14.437Z,26.70
2019-03-23T03:58:22.267Z,28.13
2019-03-23T04:03:28.748Z,27.87
2019-03-23T04:08:36.443Z,30.00
2019-03-23T04:13:44.014Z,28.50
2019-03-23T04:18:51.557Z,30.60
2019-03-23T04:23:59.526Z,32.00
2019-03-23T04:29:05.911Z,27.57
2019-03-23T04:34:12.579Z,41.70
2019-03-23T04:39:20.580Z,38.40
2019-03-23T04:44:28.256Z,30.97
2019-03-23T04:49:35.374Z,39.30
2019-03-23T04:54:41.916Z,35.77
2019-03-23T04:59:48.373Z,31.57
2019-03-23T05:04:55.950Z,39.43
2019-03-23T05:10:03.122Z,30.87
2019-03-23T05:15:09.887Z,35.47
2019-03-23T05:20:26.443Z,28.33
2019-03-23T05:25:33.172Z,31.10
2019-03-23T05:30:42.416Z,33.23
2019-03-23T05:35:50.310Z,31.90
2019-03-23T05:40:58.057Z,32.67
2019-03-23T05:46:26.069Z,43.77
2019-03-23T05:51:34.100Z,38.97
2019-03-23T05:56:41.523Z,41.87
2019-03-23T06:01:48.544Z,46.87
2019-03-23T06:06:55.152Z,43.50
2019-03-23T06:12:01.599Z,43.27
2019-03-23T06:17:09.510Z,36.97
2019-03-23T06:22:16.822Z,43.30
2019-03-23T06:27:23.417Z,35.43
2019-03-23T06:32:33.729Z,31.83
2019-03-23T06:37:41.695Z,31.43
2019-03-23T06:42:59.133Z,32.43
2019-03-23T06:47:59.449Z,29.30
2019-03-23T06:53:07.814Z,27.50
2019-03-23T06:58:19.379Z,28.10
2019-03-23T07:03:29.372Z,27.97
2019-03-23T07:08:48.018Z,37.13
2019-03-23T07:13:59.257Z,36.37
2019-03-23T07:19:09.890Z,34.37
2019-03-23T07:24:21.268Z,32.57
2019-03-23T07:29:34.129Z,34.53
2019-03-23T07:34:42.766Z,36.53
2019-03-23T07:39:49.471Z,32.57
2019-03-23T07:44:57.442Z,30.30
2019-03-23T07:50:04.497Z,37.87
2019-03-23T07:55:29.897Z,36.03
2019-03-23T08:00:36.882Z,38.50
2019-03-23T08:05:44.833Z,28.00
2019-03-23T08:11:02.135Z,29.23
2019-03-23T08:16:09.953Z,34.03
2019-03-23T08:21:16.994Z,35.37
2019-03-23T08:26:25.152Z,34.97
2019-03-23T08:31:39.592Z,28.13
2019-03-23T08:36:47.198Z,21.77
2019-03-23T08:41:54.760Z,21.13
2019-03-23T08:47:01.550Z,30.27
2019-03-23T08:52:09.931Z,29.47
2019-03-23T08:57:16.645Z,25.37
2019-03-23T09:02:23.462Z,31.47
2019-03-23T09:07:32.244Z,27.60
2019-03-23T09:12:39.810Z,27.60
2019-03-23T09:17:47.860Z,30.80
2019-03-23T09:22:56.536Z,26.43
2019-03-23T09:28:06.938Z,34.03
2019-03-23T09:33:14.742Z,27.47
2019-03-23T09:38:23.795Z,26.30
2019-03-23T09:43:33.577Z,29.77
2019-03-23T09:48:41.344Z,30.20
2019-03-23T09:53:49.172Z,33.83
2019-03-23T09:58:59.578Z,27.30
2019-03-23T10:04:07.466Z,34.98
2019-03-23T10:09:15.107Z,26.48
2019-03-23T10:14:23.048Z,24.65
2019-03-23T10:19:29.956Z,21.68
2019-03-23T10:24:38.618Z,19.82
2019-03-23T10:29:49.588Z,27.30
2019-03-23T10:34:57.685Z,31.70
2019-03-23T10:40:07.498Z,22.22
2019-03-23T10:45:14.916Z,26.97
2019-03-23T10:50:21.544Z,27.45
2019-03-23T10:55:28.489Z,30.37
2019-03-23T11:00:36.385Z,29.63
2019-03-23T11:05:44.221Z,30.05
2019-03-23T11:11:03.644Z,32.03
2019-03-23T11:16:12.786Z,27.98
2019-03-23T11:21:55.847Z,27.93
2019-03-23T11:27:03.052Z,26.27
2019-03-23T11:37:47.268Z,28.90
2019-03-23T11:43:13.827Z,29.35
2019-03-23T11:48:21.304Z,27.98
2019-03-23T11:53:30.018Z,30.68
2019-03-23T11:58:38.328Z,33.15
2019-03-23T12:03:46.188Z,28.90
2019-03-23T12:08:52.930Z,30.72
2019-03-23T12:14:00.603Z,27.75
2019-03-23T12:19:08.443Z,27.10
2019-03-23T12:24:16.365Z,30.05
2019-03-23T12:29:24.995Z,30.27
2019-03-23T12:34:33.125Z,31.62
2019-03-23T12:39:41.112Z,32.30
2019-03-23T12:44:52.845Z,29.10
2019-03-23T12:49:59.819Z,30.35
2019-03-23T12:55:07.522Z,27.85
2019-03-23T13:00:15.750Z,29.40
2019-03-23T13:05:25.630Z,27.00
2019-03-23T13:10:32.544Z,30.00
2019-03-23T13:15:39.278Z,31.87
2019-03-23T13:20:46.084Z,31.57
2019-03-23T13:25:53.023Z,27.70
2019-03-23T13:30:59.760Z,30.70
2019-03-23T13:36:07.672Z,32.23
2019-03-23T13:41:14.980Z,30.05
2019-03-23T13:46:22.209Z,29.37
2019-03-23T13:51:30.256Z,29.98
2019-03-23T13:56:37.055Z,33.78
2019-03-23T14:01:44.702Z,28.32
2019-03-23T14:07:10.180Z,27.30
2019-03-23T14:12:18.372Z,26.17
2019-03-23T14:17:26.480Z,26.23
2019-03-23T14:22:34.684Z,29.85
2019-03-23T14:27:42.326Z,31.70
2019-03-23T14:33:12.035Z,30.45
2019-03-23T14:38:20.248Z,30.15
2019-03-23T14:43:28.176Z,30.30
2019-03-23T14:48:37.541Z,31.02
2019-03-23T14:53:46.042Z,31.52
2019-03-23T14:58:57.987Z,30.88
2019-03-23T15:04:06.376Z,28.83
2019-03-23T15:09:14.126Z,27.30
2019-03-23T15:14:45.516Z,26.62
2019-03-23T15:19:52.313Z,28.85
2019-03-23T15:24:59.191Z,26.87
2019-03-23T15:30:07.739Z,21.77
2019-03-23T15:35:16.666Z,24.55
2019-03-23T15:40:26.254Z,25.80
2019-03-23T15:45:32.795Z,23.02
2019-03-23T15:50:41.482Z,28.23
2019-03-23T15:55:50.812Z,25.27
2019-03-23T16:01:00.515Z,24.45
2019-03-23T16:06:15.139Z,25.32
2019-03-23T16:11:43.554Z,26.57
2019-03-23T16:16:51.914Z,23.77
2019-03-23T16:21:58.628Z,23.85
2019-03-23T16:27:15.850Z,26.23
2019-03-23T16:32:24.532Z,25.95
2019-03-23T16:37:33.441Z,25.12
2019-03-23T16:42:45.660Z,32.28
2019-03-23T16:48:08.638Z,28.02
2019-03-23T16:53:24.389Z,24.35
2019-03-23T16:58:39.137Z,24.23
2019-03-23T17:03:49.363Z,24.70
2019-03-23T17:08:57.162Z,28.83
2019-03-23T17:14:04.023Z,27.22
2019-03-23T17:19:11.542Z,22.20
2019-03-23T17:24:17.840Z,26.57
2019-03-23T17:29:24.137Z,25.60
2019-03-23T17:34:41.449Z,26.27
2019-03-23T17:39:54.816Z,31.70
2019-03-23T17:45:01.690Z,25.80
2019-03-23T17:50:08.748Z,23.95
2019-03-23T17:55:16.738Z,23.35
2019-03-23T18:00:23.953Z,19.92
2019-03-23T18:05:30.592Z,21.75
2019-03-23T18:10:37.061Z,22.90
2019-03-23T18:15:43.462Z,24.20
2019-03-23T18:20:52.013Z,22.35
2019-03-23T18:25:59.302Z,16.07
2019-03-23T18:31:05.460Z,19.42
2019-03-23T18:36:11.981Z,20.70
2019-03-23T18:41:18.327Z,20.35
2019-03-23T18:46:25.101Z,17.82
2019-03-23T18:51:31.747Z,20.43
2019-03-23T18:56:38.021Z,17.57
2019-03-23T19:01:44.422Z,19.75
2019-03-23T19:06:50.847Z,17.20
2019-03-23T19:11:57.627Z,19.15
2019-03-23T19:17:24.084Z,19.70
2019-03-23T19:22:30.423Z,17.60
2019-03-23T19:27:38.717Z,16.35
2019-03-23T19:32:45.216Z,18.27
2019-03-23T19:37:53.506Z,21.70
2019-03-23T19:43:00.296Z,19.20
2019-03-23T19:48:06.690Z,16.67
2019-03-23T19:53:13.636Z,17.37
2019-03-23T19:58:20.482Z,17.37
2019-03-23T20:03:34.388Z,24.25
2019-03-23T20:08:50.913Z,22.60
2019-03-23T20:13:59.212Z,20.67
2019-03-23T20:19:05.634Z,22.40
2019-03-23T20:24:12.205Z,16.57
2019-03-23T20:29:18.380Z,18.15
2019-03-23T20:34:27.135Z,18.82
2019-03-23T20:39:33.512Z,24.97
2019-03-23T20:44:40.007Z,18.67
2019-03-23T20:49:46.337Z,16.53
2019-03-23T20:54:52.757Z,18.13
2019-03-23T20:59:59.419Z,15.57
2019-03-23T21:05:05.835Z,19.43
2019-03-23T21:10:14.540Z,19.70
2019-03-23T21:15:20.806Z,22.57
2019-03-23T21:20:26.995Z,24.00
2019-03-23T21:25:33.415Z,22.23
2019-03-23T21:30:39.642Z,26.57
2019-03-23T21:35:59.334Z,24.05
2019-03-23T21:41:08.027Z,20.90
2019-03-23T21:46:14.905Z,22.73
2019-03-23T21:51:21.252Z,22.40
2019-03-23T21:56:27.543Z,28.07
2019-03-23T22:01:34.251Z,21.90
2019-03-23T22:06:40.807Z,23.27
2019-03-23T22:11:47.490Z,23.13
2019-03-23T22:16:53.983Z,28.63
2019-03-23T22:22:02.668Z,25.27
2019-03-23T22:27:08.891Z,21.97
2019-03-23T22:32:15.301Z,24.13
2019-03-23T22:37:21.537Z,26.23
2019-03-23T22:42:28.010Z,22.50
2019-03-23T22:47:34.241Z,24.03
2019-03-23T22:52:40.755Z,23.43
2019-03-23T22:57:47.230Z,26.20
2019-03-23T23:02:54.019Z,23.53
2019-03-23T23:08:00.755Z,23.23
2019-03-23T23:13:07.258Z,26.93
2019-03-23T23:18:13.713Z,30.80
2019-03-23T23:23:19.965Z,29.93
2019-03-23T23:28:26.520Z,26.83
2019-03-23T23:33:33.577Z,25.13
2019-03-23T23:38:40.421Z,24.17
2019-03-23T23:43:48.493Z,30.27
2019-03-23T23:48:55.103Z,28.30
2019-03-23T23:54:01.445Z,33.40
2019-03-23T23:59:08.112Z,26.93
